createdAt,value
2018-01-30T00:00:03.595Z,800.93
2018-01-30T00:00:07.501Z,800.95
2018-01-30T00:00:11.605Z,800.96
2018-01-30T00:00:15.941Z,800.91
2018-01-30T00:00:19.938Z,800.93
2018-01-30T00:00:24.147Z,800.95
2018-01-30T00:00:27.939Z,800.93
2018-01-30T00:00:31.832Z,800.93
2018-01-30T00:00:35.830Z,800.94
2018-01-30T00:00:39.726Z,800.92
2018-01-30T00:00:43.514Z,800.91
2018-01-30T00:00:47.512Z,800.92
2018-01-30T00:00:51.407Z,800.9
2018-01-30T00:00:55.345Z,800.92
2018-01-30T00:00:59.028Z,800.93
2018-01-30T00:01:03.336Z,800.89
2018-01-30T00:01:07.124Z,800.92
2018-01-30T00:01:11.013Z,800.92
2018-01-30T00:01:14.911Z,800.84
2018-01-30T00:01:18.808Z,800.87
2018-01-30T00:01:22.807Z,800.9
2018-01-30T00:01:26.818Z,800.91
2018-01-30T00:01:30.819Z,800.9
2018-01-30T00:01:34.712Z,800.91
2018-01-30T00:01:38.501Z,800.91
2018-01-30T00:01:42.291Z,800.91
2018-01-30T00:01:46.396Z,800.88
2018-01-30T00:01:50.504Z,800.89
2018-01-30T00:01:54.607Z,800.94
2018-01-30T00:01:58.608Z,800.9
2018-01-30T00:02:02.817Z,800.89
2018-01-30T00:02:06.719Z,800.91
2018-01-30T00:02:10.613Z,800.89
2018-01-30T00:02:14.402Z,800.9
2018-01-30T00:02:18.303Z,800.89
2018-01-30T00:02:22.311Z,800.91
2018-01-30T00:02:26.312Z,800.89
2018-01-30T00:02:30.308Z,800.88
2018-01-30T00:02:34.409Z,800.87
2018-01-30T00:02:38.193Z,800.89
2018-01-30T00:02:42.098Z,800.85
2018-01-30T00:02:45.991Z,800.87
2018-01-30T00:02:49.993Z,800.86
2018-01-30T00:02:53.992Z,800.87
2018-01-30T00:02:57.778Z,800.84
2018-01-30T00:03:01.979Z,800.88
2018-01-30T00:03:05.879Z,800.87
2018-01-30T00:03:09.774Z,800.85
2018-01-30T00:03:13.666Z,800.86
2018-01-30T00:03:17.458Z,800.85
2018-01-30T00:03:21.237Z,800.85
2018-01-30T00:03:25.238Z,800.87
2018-01-30T00:03:29.142Z,800.85
2018-01-30T00:03:32.927Z,800.85
2018-01-30T00:03:36.819Z,800.82
2018-01-30T00:03:40.503Z,800.84
2018-01-30T00:03:44.292Z,800.83
2018-01-30T00:03:48.185Z,800.85
2018-01-30T00:03:52.190Z,800.81
2018-01-30T00:03:56.188Z,800.87
2018-01-30T00:04:00.085Z,800.87
2018-01-30T00:04:03.976Z,800.85
2018-01-30T00:04:07.873Z,800.86
2018-01-30T00:04:11.772Z,800.88
2018-01-30T00:04:15.777Z,800.86
2018-01-30T00:04:19.673Z,800.88
2018-01-30T00:04:23.469Z,800.86
2018-01-30T00:04:27.466Z,800.86
2018-01-30T00:04:31.366Z,800.88
2018-01-30T00:04:35.470Z,800.87
2018-01-30T00:04:39.261Z,800.87
2018-01-30T00:04:42.950Z,800.88
2018-01-30T00:04:46.943Z,800.86
2018-01-30T00:04:50.940Z,800.86
2018-01-30T00:04:54.935Z,800.88
2018-01-30T00:04:58.834Z,800.85
2018-01-30T00:05:03.033Z,800.84
2018-01-30T00:05:06.827Z,800.84
2018-01-30T00:05:10.617Z,800.87
2018-01-30T00:05:14.729Z,800.86
2018-01-30T00:05:18.731Z,800.89
2018-01-30T00:05:22.630Z,800.87
2018-01-30T00:05:26.745Z,800.88
2018-01-30T00:05:30.640Z,800.87
2018-01-30T00:05:34.324Z,800.88
2018-01-30T00:05:38.215Z,800.87
2018-01-30T00:05:42.119Z,800.9
2018-01-30T00:05:45.803Z,800.84
2018-01-30T00:05:49.800Z,800.85
2018-01-30T00:05:53.908Z,800.88
2018-01-30T00:05:57.909Z,800.85
2018-01-30T00:06:01.911Z,800.88
2018-01-30T00:06:05.914Z,800.83
2018-01-30T00:06:09.809Z,800.83
2018-01-30T00:06:13.702Z,800.86
2018-01-30T00:06:17.702Z,800.79
2018-01-30T00:06:21.598Z,800.87
2018-01-30T00:06:25.388Z,800.83
2018-01-30T00:06:29.181Z,800.87
2018-01-30T00:06:33.289Z,800.87
2018-01-30T00:06:37.189Z,800.87
2018-01-30T00:06:41.084Z,800.85
2018-01-30T00:06:44.977Z,800.88
2018-01-30T00:06:49.083Z,800.88
2018-01-30T00:06:53.088Z,800.88
2018-01-30T00:06:57.082Z,800.87
2018-01-30T00:07:01.187Z,800.88
2018-01-30T00:07:05.088Z,800.88
2018-01-30T00:07:08.881Z,800.88
2018-01-30T00:07:12.884Z,800.91
2018-01-30T00:07:16.783Z,800.89
2018-01-30T00:07:20.802Z,800.88
2018-01-30T00:07:24.799Z,800.88
2018-01-30T00:07:28.804Z,800.85
2018-01-30T00:07:32.703Z,800.88
2018-01-30T00:07:36.805Z,800.88
2018-01-30T00:07:40.804Z,800.86
2018-01-30T00:07:44.702Z,800.87
2018-01-30T00:07:48.703Z,800.89
2018-01-30T00:07:52.810Z,800.86
2018-01-30T00:07:56.607Z,800.86
2018-01-30T00:08:00.293Z,800.83
2018-01-30T00:08:04.087Z,800.88
2018-01-30T00:08:08.195Z,800.85
2018-01-30T00:08:11.879Z,800.85
2018-01-30T00:08:15.771Z,800.86
2018-01-30T00:08:19.662Z,800.87
2018-01-30T00:08:23.555Z,800.89
2018-01-30T00:08:27.494Z,800.87
2018-01-30T00:08:31.700Z,800.88
2018-01-30T00:08:35.700Z,800.87
2018-01-30T00:08:39.594Z,800.86
2018-01-30T00:08:43.379Z,800.87
2018-01-30T00:08:47.484Z,800.9
2018-01-30T00:08:51.586Z,800.89
2018-01-30T00:08:55.587Z,800.88
2018-01-30T00:08:59.381Z,800.88
2018-01-30T00:09:03.629Z,800.87
2018-01-30T00:09:07.626Z,800.87
2018-01-30T00:09:11.939Z,800.89
2018-01-30T00:09:15.843Z,800.87
2018-01-30T00:09:19.949Z,800.86
2018-01-30T00:09:23.845Z,800.88
2018-01-30T00:09:27.630Z,800.91
2018-01-30T00:09:31.635Z,800.89
2018-01-30T00:09:35.529Z,800.91
2018-01-30T00:09:39.313Z,800.86
2018-01-30T00:09:43.007Z,800.89
2018-01-30T00:09:46.797Z,800.9
2018-01-30T00:09:50.901Z,800.87
2018-01-30T00:09:55.008Z,800.89
2018-01-30T00:09:58.905Z,800.87
2018-01-30T00:10:02.689Z,800.9
2018-01-30T00:10:06.767Z,800.89
2018-01-30T00:10:10.771Z,800.87
2018-01-30T00:10:14.664Z,800.9
2018-01-30T00:10:18.669Z,800.87
2018-01-30T00:10:22.878Z,800.9
2018-01-30T00:10:27.009Z,800.89
2018-01-30T00:10:30.801Z,800.88
2018-01-30T00:10:34.490Z,800.84
2018-01-30T00:10:38.388Z,800.81
2018-01-30T00:10:42.281Z,800.89
2018-01-30T00:10:45.964Z,800.87
2018-01-30T00:10:49.850Z,800.89
2018-01-30T00:10:53.638Z,800.93
2018-01-30T00:10:57.754Z,800.91
2018-01-30T00:11:01.442Z,800.92
2018-01-30T00:11:05.242Z,800.88
2018-01-30T00:11:09.024Z,800.91
2018-01-30T00:11:12.921Z,800.89
2018-01-30T00:11:16.818Z,800.93
2018-01-30T00:11:21.230Z,800.91
2018-01-30T00:11:25.015Z,800.9
2018-01-30T00:11:28.911Z,800.89
2018-01-30T00:11:32.798Z,800.89
2018-01-30T00:11:36.790Z,800.89
2018-01-30T00:11:40.686Z,800.9
2018-01-30T00:11:44.581Z,800.91
2018-01-30T00:11:48.685Z,800.9
2018-01-30T00:11:52.582Z,800.87
2018-01-30T00:11:56.576Z,800.89
2018-01-30T00:12:00.679Z,800.87
2018-01-30T00:12:04.884Z,800.9
2018-01-30T00:12:08.774Z,800.92
2018-01-30T00:12:12.457Z,800.91
2018-01-30T00:12:16.247Z,800.92
2018-01-30T00:12:20.037Z,800.92
2018-01-30T00:12:24.031Z,800.94
2018-01-30T00:12:27.820Z,800.91
2018-01-30T00:12:31.716Z,800.92
2018-01-30T00:12:35.823Z,800.91
2018-01-30T00:12:39.502Z,800.91
2018-01-30T00:12:43.293Z,800.91
2018-01-30T00:12:47.078Z,800.92
2018-01-30T00:12:50.877Z,800.9
2018-01-30T00:12:54.667Z,800.93
2018-01-30T00:12:58.457Z,800.94
2018-01-30T00:13:02.456Z,800.92
2018-01-30T00:13:06.452Z,800.91
2018-01-30T00:13:10.344Z,800.91
2018-01-30T00:13:14.350Z,800.91
2018-01-30T00:13:18.345Z,800.9
2018-01-30T00:13:22.239Z,800.92
2018-01-30T00:13:26.130Z,800.91
2018-01-30T00:13:30.136Z,800.93
2018-01-30T00:13:33.924Z,800.92
2018-01-30T00:13:37.814Z,800.94
2018-01-30T00:13:41.821Z,800.93
2018-01-30T00:13:45.821Z,800.92
2018-01-30T00:13:49.820Z,800.9
2018-01-30T00:13:53.924Z,800.87
2018-01-30T00:13:57.926Z,800.88
2018-01-30T00:14:01.932Z,800.9
2018-01-30T00:14:05.837Z,800.92
2018-01-30T00:14:10.051Z,800.91
2018-01-30T00:14:13.951Z,800.94
2018-01-30T00:14:17.849Z,800.94
2018-01-30T00:14:21.948Z,800.93
2018-01-30T00:14:25.844Z,800.93
2018-01-30T00:14:29.528Z,800.89
2018-01-30T00:14:33.213Z,800.9
2018-01-30T00:14:37.115Z,800.9
2018-01-30T00:14:40.896Z,800.91
2018-01-30T00:14:44.684Z,800.93
2018-01-30T00:14:48.788Z,800.94
2018-01-30T00:14:52.786Z,800.92
2018-01-30T00:14:56.578Z,800.94
2018-01-30T00:15:00.591Z,800.96
2018-01-30T00:15:04.677Z,800.93
2018-01-30T00:15:08.464Z,800.92
2018-01-30T00:15:12.249Z,800.94
2018-01-30T00:15:16.041Z,800.94
2018-01-30T00:15:20.141Z,800.97
2018-01-30T00:15:23.933Z,800.97
2018-01-30T00:15:27.929Z,800.95
2018-01-30T00:15:31.728Z,800.96
2018-01-30T00:15:35.518Z,800.94
2018-01-30T00:15:39.415Z,800.96
2018-01-30T00:15:43.206Z,800.95
2018-01-30T00:15:47.211Z,800.96
2018-01-30T00:15:51.215Z,800.96
2018-01-30T00:15:55.212Z,800.95
2018-01-30T00:15:59.112Z,800.96
2018-01-30T00:16:03.013Z,800.98
2018-01-30T00:16:06.690Z,800.97
2018-01-30T00:16:10.804Z,800.98
2018-01-30T00:16:14.592Z,800.97
2018-01-30T00:16:18.724Z,800.92
2018-01-30T00:16:22.508Z,800.93
2018-01-30T00:16:26.508Z,800.91
2018-01-30T00:16:30.403Z,800.93
2018-01-30T00:16:34.195Z,800.9
2018-01-30T00:16:38.086Z,800.95
2018-01-30T00:16:41.876Z,800.95
2018-01-30T00:16:45.984Z,800.93
2018-01-30T00:16:49.990Z,800.95
2018-01-30T00:16:54.000Z,800.96
2018-01-30T00:16:58.008Z,800.91
2018-01-30T00:17:01.904Z,800.94
2018-01-30T00:17:05.589Z,800.94
2018-01-30T00:17:09.487Z,800.98
2018-01-30T00:17:13.692Z,801
2018-01-30T00:17:17.375Z,801
2018-01-30T00:17:21.163Z,800.94
2018-01-30T00:17:24.948Z,801
2018-01-30T00:17:28.733Z,800.98
2018-01-30T00:17:32.729Z,800.98
2018-01-30T00:17:36.517Z,801.01
2018-01-30T00:17:40.298Z,800.98
2018-01-30T00:17:44.303Z,800.97
2018-01-30T00:17:48.620Z,800.97
2018-01-30T00:17:52.617Z,800.98
2018-01-30T00:17:56.512Z,800.97
2018-01-30T00:18:00.196Z,801
2018-01-30T00:18:04.501Z,800.96
2018-01-30T00:18:08.503Z,801.02
2018-01-30T00:18:12.397Z,800.97
2018-01-30T00:18:16.182Z,800.99
2018-01-30T00:18:19.968Z,800.99
2018-01-30T00:18:23.753Z,800.98
2018-01-30T00:18:27.662Z,800.98
2018-01-30T00:18:31.552Z,800.99
2018-01-30T00:18:35.341Z,800.99
2018-01-30T00:18:39.238Z,800.94
2018-01-30T00:18:43.130Z,800.95
2018-01-30T00:18:47.023Z,800.94
2018-01-30T00:18:51.284Z,800.97
2018-01-30T00:18:55.181Z,801
2018-01-30T00:18:59.080Z,800.96
2018-01-30T00:19:03.335Z,800.93
2018-01-30T00:19:07.118Z,800.96
2018-01-30T00:19:11.116Z,801.02
2018-01-30T00:19:14.907Z,801
2018-01-30T00:19:18.908Z,801
2018-01-30T00:19:23.008Z,801.02
2018-01-30T00:19:27.012Z,801.04
2018-01-30T00:19:31.012Z,801.06
2018-01-30T00:19:35.120Z,801.04
2018-01-30T00:19:38.915Z,801.03
2018-01-30T00:19:42.811Z,801.04
2018-01-30T00:19:46.817Z,801.03
2018-01-30T00:19:50.710Z,801.06
2018-01-30T00:19:54.814Z,801.04
2018-01-30T00:19:58.605Z,801.03
2018-01-30T00:20:02.598Z,801.05
2018-01-30T00:20:06.714Z,801.06
2018-01-30T00:20:10.392Z,801.05
2018-01-30T00:20:14.385Z,801.04
2018-01-30T00:20:18.176Z,801.05
2018-01-30T00:20:22.168Z,801.02
2018-01-30T00:20:26.166Z,801.04
2018-01-30T00:20:30.162Z,801.05
2018-01-30T00:20:34.166Z,801.04
2018-01-30T00:20:38.059Z,801.06
2018-01-30T00:20:41.951Z,801.07
2018-01-30T00:20:45.635Z,801.07
2018-01-30T00:20:49.739Z,801.07
2018-01-30T00:20:53.839Z,801.07
2018-01-30T00:20:57.521Z,801.06
2018-01-30T00:21:01.211Z,801.05
2018-01-30T00:21:05.217Z,801.07
2018-01-30T00:21:09.211Z,801.05
2018-01-30T00:21:13.108Z,801.08
2018-01-30T00:21:17.114Z,801.07
2018-01-30T00:21:20.906Z,801.06
2018-01-30T00:21:24.904Z,801.08
2018-01-30T00:21:28.907Z,801.07
2018-01-30T00:21:32.900Z,801.08
2018-01-30T00:21:36.900Z,801.08
2018-01-30T00:21:40.690Z,801.09
2018-01-30T00:21:44.795Z,801.08
2018-01-30T00:21:48.792Z,801.07
2018-01-30T00:21:52.689Z,801.1
2018-01-30T00:21:56.582Z,801.11
2018-01-30T00:22:00.684Z,801.07
2018-01-30T00:22:04.832Z,801.1
2018-01-30T00:22:08.838Z,801.13
2018-01-30T00:22:12.840Z,801.14
2018-01-30T00:22:16.732Z,801.09
2018-01-30T00:22:20.740Z,801.1
2018-01-30T00:22:24.741Z,801.11
2018-01-30T00:22:28.744Z,801.09
2018-01-30T00:22:32.535Z,801.12
2018-01-30T00:22:36.536Z,801.1
2018-01-30T00:22:40.324Z,801.12
2018-01-30T00:22:44.220Z,801.11
2018-01-30T00:22:48.222Z,801.14
2018-01-30T00:22:52.223Z,801.12
2018-01-30T00:22:56.131Z,801.14
2018-01-30T00:23:00.134Z,801.16
2018-01-30T00:23:04.235Z,801.13
2018-01-30T00:23:08.235Z,801.11
2018-01-30T00:23:12.126Z,801.14
2018-01-30T00:23:16.135Z,801.14
2018-01-30T00:23:19.927Z,801.15
2018-01-30T00:23:23.824Z,801.15
2018-01-30T00:23:27.823Z,801.15
2018-01-30T00:23:31.510Z,801.14
2018-01-30T00:23:35.405Z,801.15
2018-01-30T00:23:39.193Z,801.15
2018-01-30T00:23:42.873Z,801.16
2018-01-30T00:23:46.770Z,801.13
2018-01-30T00:23:50.772Z,801.14
2018-01-30T00:23:54.559Z,801.14
2018-01-30T00:23:58.450Z,801.16
2018-01-30T00:24:02.550Z,801.15
2018-01-30T00:24:06.344Z,801.14
2018-01-30T00:24:10.346Z,801.14
2018-01-30T00:24:14.453Z,801.16
2018-01-30T00:24:18.458Z,801.14
2018-01-30T00:24:22.460Z,801.17
2018-01-30T00:24:26.247Z,801.18
2018-01-30T00:24:30.253Z,801.17
2018-01-30T00:24:34.147Z,801.19
2018-01-30T00:24:37.942Z,801.16
2018-01-30T00:24:41.623Z,801.18
2018-01-30T00:24:45.622Z,801.18
2018-01-30T00:24:49.516Z,801.21
2018-01-30T00:24:53.521Z,801.17
2018-01-30T00:24:57.523Z,801.18
2018-01-30T00:25:01.319Z,801.21
2018-01-30T00:25:05.576Z,801.19
2018-01-30T00:25:09.682Z,801.18
2018-01-30T00:25:13.481Z,801.19
2018-01-30T00:25:17.483Z,801.22
2018-01-30T00:25:21.378Z,801.19
2018-01-30T00:25:25.381Z,801.19
2018-01-30T00:25:29.382Z,801.19
2018-01-30T00:25:33.175Z,801.21
2018-01-30T00:25:36.972Z,801.17
2018-01-30T00:25:40.968Z,801.16
2018-01-30T00:25:44.751Z,801.19
2018-01-30T00:25:48.752Z,801.22
2018-01-30T00:25:52.536Z,801.22
2018-01-30T00:25:56.427Z,801.2
2018-01-30T00:26:00.317Z,801.19
2018-01-30T00:26:04.256Z,801.21
2018-01-30T00:26:08.473Z,801.2
2018-01-30T00:26:12.581Z,801.18
2018-01-30T00:26:16.372Z,801.21
2018-01-30T00:26:20.153Z,801.23
2018-01-30T00:26:23.841Z,801.18
2018-01-30T00:26:27.839Z,801.22
2018-01-30T00:26:31.841Z,801.23
2018-01-30T00:26:35.740Z,801.21
2018-01-30T00:26:39.663Z,801.2
2018-01-30T00:26:43.555Z,801.23
2018-01-30T00:26:47.453Z,801.24
2018-01-30T00:26:51.245Z,801.21
2018-01-30T00:26:55.158Z,801.21
2018-01-30T00:26:59.072Z,801.23
2018-01-30T00:27:03.391Z,801.23
2018-01-30T00:27:07.082Z,801.2
2018-01-30T00:27:10.870Z,801.24
2018-01-30T00:27:14.664Z,801.2
2018-01-30T00:27:18.457Z,801.21
2018-01-30T00:27:22.247Z,801.25
2018-01-30T00:27:26.147Z,801.2
2018-01-30T00:27:29.832Z,801.23
2018-01-30T00:27:33.622Z,801.23
2018-01-30T00:27:37.517Z,801.21
2018-01-30T00:27:41.422Z,801.23
2018-01-30T00:27:45.326Z,801.25
2018-01-30T00:27:49.433Z,801.23
2018-01-30T00:27:53.534Z,801.19
2018-01-30T00:27:57.582Z,801.25
2018-01-30T00:28:01.686Z,801.26
2018-01-30T00:28:05.370Z,801.3
2018-01-30T00:28:09.260Z,801.26
2018-01-30T00:28:13.268Z,801.27
2018-01-30T00:28:17.166Z,801.26
2018-01-30T00:28:21.061Z,801.26
2018-01-30T00:28:25.271Z,801.27
2018-01-30T00:28:29.170Z,801.3
2018-01-30T00:28:33.062Z,801.26
2018-01-30T00:28:36.972Z,801.31
2018-01-30T00:28:40.764Z,801.32
2018-01-30T00:28:44.761Z,801.29
2018-01-30T00:28:48.552Z,801.28
2018-01-30T00:28:52.658Z,801.32
2018-01-30T00:28:56.762Z,801.33
2018-01-30T00:29:00.771Z,801.33
2018-01-30T00:29:04.857Z,801.3
2018-01-30T00:29:08.756Z,801.28
2018-01-30T00:29:12.750Z,801.24
2018-01-30T00:29:16.748Z,801.29
2018-01-30T00:29:20.647Z,801.31
2018-01-30T00:29:24.644Z,801.3
2018-01-30T00:29:28.642Z,801.28
2018-01-30T00:29:32.430Z,801.31
2018-01-30T00:29:36.320Z,801.33
2018-01-30T00:29:40.210Z,801.3
2018-01-30T00:29:43.999Z,801.34
2018-01-30T00:29:48.211Z,801.32
2018-01-30T00:29:52.107Z,801.34
2018-01-30T00:29:55.894Z,801.3
2018-01-30T00:29:59.788Z,801.31
2018-01-30T00:30:03.842Z,801.33
2018-01-30T00:30:08.159Z,801.33
2018-01-30T00:30:12.480Z,801.32
2018-01-30T00:30:16.382Z,801.34
2018-01-30T00:30:20.807Z,801.32
2018-01-30T00:30:24.701Z,801.31
2018-01-30T00:30:28.803Z,801.35
2018-01-30T00:30:32.811Z,801.34
2018-01-30T00:30:36.605Z,801.28
2018-01-30T00:30:40.394Z,801.32
2018-01-30T00:30:44.191Z,801.28
2018-01-30T00:30:48.087Z,801.29
2018-01-30T00:30:52.296Z,801.41
2018-01-30T00:30:56.085Z,801.36
2018-01-30T00:30:59.871Z,801.38
2018-01-30T00:31:03.711Z,801.34
2018-01-30T00:31:07.827Z,801.36
2018-01-30T00:31:11.724Z,801.38
2018-01-30T00:31:15.513Z,801.38
2018-01-30T00:31:19.515Z,801.39
2018-01-30T00:31:23.207Z,801.36
2018-01-30T00:31:26.899Z,801.39
2018-01-30T00:31:30.793Z,801.41
2018-01-30T00:31:34.796Z,801.35
2018-01-30T00:31:38.798Z,801.4
2018-01-30T00:31:42.693Z,801.41
2018-01-30T00:31:46.593Z,801.42
2018-01-30T00:31:50.699Z,801.41
2018-01-30T00:31:54.808Z,801.38
2018-01-30T00:31:58.493Z,801.41
2018-01-30T00:32:02.435Z,801.38
2018-01-30T00:32:06.227Z,801.39
2018-01-30T00:32:10.123Z,801.41
2018-01-30T00:32:14.023Z,801.42
2018-01-30T00:32:17.918Z,801.43
2018-01-30T00:32:21.714Z,801.43
2018-01-30T00:32:25.713Z,801.45
2018-01-30T00:32:29.399Z,801.41
2018-01-30T00:32:33.190Z,801.45
2018-01-30T00:32:37.300Z,801.45
2018-01-30T00:32:41.307Z,801.43
2018-01-30T00:32:45.201Z,801.44
2018-01-30T00:32:49.203Z,801.43
2018-01-30T00:32:52.999Z,801.47
2018-01-30T00:32:57.098Z,801.45
2018-01-30T00:33:01.098Z,801.47
2018-01-30T00:33:04.893Z,801.47
2018-01-30T00:33:08.901Z,801.47
2018-01-30T00:33:13.109Z,801.47
2018-01-30T00:33:16.791Z,801.49
2018-01-30T00:33:20.801Z,801.47
2018-01-30T00:33:24.702Z,801.47
2018-01-30T00:33:28.704Z,801.48
2018-01-30T00:33:32.607Z,801.48
2018-01-30T00:33:36.495Z,801.49
2018-01-30T00:33:40.221Z,801.46
2018-01-30T00:33:44.221Z,801.5
2018-01-30T00:33:48.122Z,801.47
2018-01-30T00:33:52.120Z,801.49
2018-01-30T00:33:56.226Z,801.5
2018-01-30T00:34:00.128Z,801.49
2018-01-30T00:34:04.323Z,801.52
2018-01-30T00:34:08.115Z,801.5
2018-01-30T00:34:12.214Z,801.51
2018-01-30T00:34:16.111Z,801.54
2018-01-30T00:34:19.899Z,801.51
2018-01-30T00:34:23.791Z,801.5
2018-01-30T00:34:27.474Z,801.51
2018-01-30T00:34:31.478Z,801.48
2018-01-30T00:34:35.419Z,801.43
2018-01-30T00:34:39.206Z,801.51
2018-01-30T00:34:43.001Z,801.53
2018-01-30T00:34:46.693Z,801.51
2018-01-30T00:34:50.482Z,801.54
2018-01-30T00:34:54.587Z,801.5
2018-01-30T00:34:58.376Z,801.46
2018-01-30T00:35:02.268Z,801.52
2018-01-30T00:35:06.058Z,801.51
2018-01-30T00:35:09.850Z,801.51
2018-01-30T00:35:13.532Z,801.51
2018-01-30T00:35:17.426Z,801.51
2018-01-30T00:35:21.538Z,801.54
2018-01-30T00:35:25.329Z,801.51
2018-01-30T00:35:29.222Z,801.54
2018-01-30T00:35:33.434Z,801.52
2018-01-30T00:35:37.333Z,801.5
2018-01-30T00:35:41.016Z,801.52
2018-01-30T00:35:44.916Z,801.53
2018-01-30T00:35:48.818Z,801.55
2018-01-30T00:35:52.817Z,801.53
2018-01-30T00:35:56.713Z,801.54
2018-01-30T00:36:00.397Z,801.54
2018-01-30T00:36:04.502Z,801.56
2018-01-30T00:36:08.507Z,801.55
2018-01-30T00:36:12.611Z,801.51
2018-01-30T00:36:16.926Z,801.54
2018-01-30T00:36:20.827Z,801.56
2018-01-30T00:36:24.734Z,801.58
2018-01-30T00:36:28.524Z,801.53
2018-01-30T00:36:32.324Z,801.59
2018-01-30T00:36:36.223Z,801.58
2018-01-30T00:36:40.021Z,801.52
2018-01-30T00:36:44.026Z,801.51
2018-01-30T00:36:47.925Z,801.57
2018-01-30T00:36:51.928Z,801.55
2018-01-30T00:36:55.931Z,801.55
2018-01-30T00:36:59.830Z,801.51
2018-01-30T00:37:03.825Z,801.53
2018-01-30T00:37:07.762Z,801.5
2018-01-30T00:37:11.659Z,801.49
2018-01-30T00:37:15.872Z,801.56
2018-01-30T00:37:19.776Z,801.56
2018-01-30T00:37:23.786Z,801.57
2018-01-30T00:37:27.584Z,801.54
2018-01-30T00:37:31.482Z,801.55
2018-01-30T00:37:35.490Z,801.57
2018-01-30T00:37:39.382Z,801.6
2018-01-30T00:37:43.284Z,801.56
2018-01-30T00:37:47.495Z,801.59
2018-01-30T00:37:51.499Z,801.57
2018-01-30T00:37:55.500Z,801.54
2018-01-30T00:37:59.506Z,801.57
2018-01-30T00:38:03.505Z,801.54
2018-01-30T00:38:07.401Z,801.56
2018-01-30T00:38:11.298Z,801.53
2018-01-30T00:38:15.404Z,801.55
2018-01-30T00:38:19.512Z,801.52
2018-01-30T00:38:23.410Z,801.49
2018-01-30T00:38:27.196Z,801.48
2018-01-30T00:38:30.992Z,801.52
2018-01-30T00:38:34.784Z,801.55
2018-01-30T00:38:38.784Z,801.51
2018-01-30T00:38:42.682Z,801.53
2018-01-30T00:38:46.580Z,801.52
2018-01-30T00:38:50.684Z,801.51
2018-01-30T00:38:54.641Z,801.56
2018-01-30T00:38:58.647Z,801.53
2018-01-30T00:39:02.796Z,801.53
2018-01-30T00:39:06.691Z,801.52
2018-01-30T00:39:10.594Z,801.51
2018-01-30T00:39:14.592Z,801.53
2018-01-30T00:39:18.388Z,801.5
2018-01-30T00:39:22.284Z,801.55
2018-01-30T00:39:26.183Z,801.53
2018-01-30T00:39:30.181Z,801.52
2018-01-30T00:39:34.078Z,801.53
2018-01-30T00:39:38.076Z,801.55
2018-01-30T00:39:41.980Z,801.52
2018-01-30T00:39:45.774Z,801.52
2018-01-30T00:39:49.676Z,801.56
2018-01-30T00:39:53.571Z,801.54
2018-01-30T00:39:57.468Z,801.5
2018-01-30T00:40:01.576Z,801.51
2018-01-30T00:40:05.589Z,801.52
2018-01-30T00:40:09.592Z,801.52
2018-01-30T00:40:13.490Z,801.51
2018-01-30T00:40:17.500Z,801.53
2018-01-30T00:40:21.401Z,801.51
2018-01-30T00:40:25.088Z,801.53
2018-01-30T00:40:29.099Z,801.54
2018-01-30T00:40:32.995Z,801.54
2018-01-30T00:40:36.990Z,801.45
2018-01-30T00:40:40.896Z,801.5
2018-01-30T00:40:44.585Z,801.49
2018-01-30T00:40:48.385Z,801.49
2018-01-30T00:40:52.404Z,801.56
2018-01-30T00:40:56.503Z,801.57
2018-01-30T00:41:00.506Z,801.56
2018-01-30T00:41:04.405Z,801.56
2018-01-30T00:41:08.299Z,801.56
2018-01-30T00:41:12.098Z,801.55
2018-01-30T00:41:15.994Z,801.54
2018-01-30T00:41:20.000Z,801.56
2018-01-30T00:41:24.491Z,801.56
2018-01-30T00:41:28.610Z,801.54
2018-01-30T00:41:32.409Z,801.54
2018-01-30T00:41:36.201Z,801.56
2018-01-30T00:41:40.094Z,801.53
2018-01-30T00:41:44.098Z,801.56
2018-01-30T00:41:47.998Z,801.56
2018-01-30T00:41:51.897Z,801.56
2018-01-30T00:41:55.793Z,801.57
2018-01-30T00:41:59.583Z,801.61
2018-01-30T00:42:03.488Z,801.55
2018-01-30T00:42:07.596Z,801.56
2018-01-30T00:42:11.387Z,801.54
2018-01-30T00:42:15.493Z,801.52
2018-01-30T00:42:19.387Z,801.55
2018-01-30T00:42:23.391Z,801.51
2018-01-30T00:42:27.193Z,801.51
2018-01-30T00:42:31.123Z,801.54
2018-01-30T00:42:35.131Z,801.54
2018-01-30T00:42:38.924Z,801.55
2018-01-30T00:42:42.823Z,801.54
2018-01-30T00:42:46.721Z,801.55
2018-01-30T00:42:51.038Z,801.53
2018-01-30T00:42:55.355Z,801.55
2018-01-30T00:42:59.362Z,801.55
2018-01-30T00:43:03.359Z,801.53
2018-01-30T00:43:07.045Z,801.56
2018-01-30T00:43:11.048Z,801.55
2018-01-30T00:43:14.841Z,801.51
2018-01-30T00:43:18.947Z,801.55
2018-01-30T00:43:22.999Z,801.52
2018-01-30T00:43:27.105Z,801.52
2018-01-30T00:43:30.802Z,801.51
2018-01-30T00:43:34.742Z,801.54
2018-01-30T00:43:38.530Z,801.54
2018-01-30T00:43:42.440Z,801.52
2018-01-30T00:43:46.335Z,801.52
2018-01-30T00:43:50.648Z,801.56
2018-01-30T00:43:54.761Z,801.54
2018-01-30T00:43:58.764Z,801.5
2018-01-30T00:44:03.075Z,801.51
2018-01-30T00:44:06.859Z,801.53
2018-01-30T00:44:10.856Z,801.49
2018-01-30T00:44:14.854Z,801.54
2018-01-30T00:44:19.155Z,801.54
2018-01-30T00:44:22.952Z,801.54
2018-01-30T00:44:26.855Z,801.54
2018-01-30T00:44:30.764Z,801.53
2018-01-30T00:44:34.659Z,801.53
2018-01-30T00:44:38.561Z,801.54
2018-01-30T00:44:42.667Z,801.52
2018-01-30T00:45:18.821Z,801.53
2018-01-30T00:45:22.514Z,801.54
2018-01-30T00:45:26.197Z,801.54
2018-01-30T00:45:30.090Z,801.57
2018-01-30T00:45:33.890Z,801.58
2018-01-30T00:45:37.790Z,801.59
2018-01-30T00:45:41.581Z,801.57
2018-01-30T00:45:45.582Z,801.57
2018-01-30T00:45:49.579Z,801.56
2018-01-30T00:45:53.596Z,801.58
2018-01-30T00:45:57.388Z,801.6
2018-01-30T00:46:01.488Z,801.52
2018-01-30T00:46:05.526Z,801.52
2018-01-30T00:46:09.314Z,801.54
2018-01-30T00:46:13.098Z,801.59
2018-01-30T00:46:16.991Z,801.56
2018-01-30T00:46:20.780Z,801.58
2018-01-30T00:46:24.573Z,801.6
2018-01-30T00:46:28.473Z,801.58
2018-01-30T00:46:32.374Z,801.57
2018-01-30T00:46:36.162Z,801.58
2018-01-30T00:46:40.165Z,801.58
2018-01-30T00:46:44.062Z,801.58
2018-01-30T00:46:48.057Z,801.62
2018-01-30T00:46:51.848Z,801.61
2018-01-30T00:46:55.842Z,801.55
2018-01-30T00:46:59.736Z,801.55
2018-01-30T00:47:03.882Z,801.6
2018-01-30T00:47:07.882Z,801.63
2018-01-30T00:47:11.566Z,801.61
2018-01-30T00:47:15.467Z,801.58
2018-01-30T00:47:19.683Z,801.59
2018-01-30T00:47:23.689Z,801.59
2018-01-30T00:47:27.685Z,801.61
2018-01-30T00:47:31.796Z,801.58
2018-01-30T00:47:35.894Z,801.61
2018-01-30T00:47:39.685Z,801.61
2018-01-30T00:47:43.576Z,801.6
2018-01-30T00:47:47.683Z,801.6
2018-01-30T00:47:51.579Z,801.6
2018-01-30T00:47:55.694Z,801.62
2018-01-30T00:47:59.583Z,801.62
2018-01-30T00:48:03.687Z,801.61
2018-01-30T00:48:07.690Z,801.61
2018-01-30T00:48:11.688Z,801.62
2018-01-30T00:48:15.678Z,801.61
2018-01-30T00:48:19.366Z,801.63
2018-01-30T00:48:23.469Z,801.63
2018-01-30T00:48:27.471Z,801.57
2018-01-30T00:48:31.471Z,801.63
2018-01-30T00:48:35.270Z,801.6
2018-01-30T00:48:39.265Z,801.62
2018-01-30T00:48:42.952Z,801.62
2018-01-30T00:48:46.739Z,801.62
2018-01-30T00:48:50.630Z,801.61
2018-01-30T00:48:54.533Z,801.62
2018-01-30T00:48:58.322Z,801.63
2018-01-30T00:49:02.321Z,801.63
2018-01-30T00:49:06.213Z,801.61
2018-01-30T00:49:10.317Z,801.64
2018-01-30T00:49:14.362Z,801.6
2018-01-30T00:49:18.464Z,801.62
2018-01-30T00:49:22.252Z,801.63
2018-01-30T00:49:26.247Z,801.63
2018-01-30T00:49:30.247Z,801.66
2018-01-30T00:49:33.927Z,801.67
2018-01-30T00:49:37.709Z,801.64
2018-01-30T00:49:41.722Z,801.63
2018-01-30T00:49:45.409Z,801.65
2018-01-30T00:49:49.408Z,801.65